Time;durP1;ratioP1;P1;durP2;ratioP2;P2;SDS_P1;SDS_P2;PMS_P1;PMS_P2;Temp;Humidity;BMP_temperature;BMP_pressure;BME280_temperature;BME280_humidity;BME280_pressure;Samples;Min_cycle;Max_cycle;Signal;HPM_P1;HPM_P2
2022/01/06 00:00:11;;;;;;;44.53;24.05;;;;;;;5.14;100.00;99834.66;5070279;28;20025;-73
2022/01/06 00:02:36;;;;;;;46.60;25.63;;;;;;;5.00;100.00;99831.44;5070110;28;20031;-74
2022/01/06 00:05:03;;;;;;;50.47;25.10;;;;;;;4.97;100.00;99825.28;5070224;28;20410;-76
2022/01/06 00:07:29;;;;;;;50.25;25.60;;;;;;;5.09;100.00;99843.81;5069785;28;20043;-74
2022/01/06 00:09:55;;;;;;;35.38;21.92;;;;;;;4.74;100.00;99850.59;5070229;28;20039;-74
2022/01/06 00:12:25;;;;;;;31.90;21.20;;;;;;;4.36;100.00;99796.75;5067388;28;20099;-75
2022/01/06 00:25:10;;;;;;;36.80;22.70;;;;;;;4.40;100.00;99845.44;5067728;28;20039;-73
2022/01/06 00:27:35;;;;;;;31.30;20.75;;;;;;;4.33;100.00;99857.91;5070122;28;20033;-73
2022/01/06 00:30:01;;;;;;;43.20;24.13;;;;;;;4.25;100.00;99845.53;5071556;28;20033;-72
2022/01/06 00:32:26;;;;;;;37.85;29.67;;;;;;;4.23;100.00;99839.50;5070779;28;20052;-72
2022/01/06 00:34:51;;;;;;;37.22;23.27;;;;;;;4.30;100.00;99839.88;5071764;28;20059;-73
2022/01/06 00:37:17;;;;;;;30.02;22.60;;;;;;;3.88;100.00;99771.28;5071270;28;20045;-73
2022/01/06 00:39:42;;;;;;;27.20;20.40;;;;;;;4.22;100.00;99846.25;5086653;28;20497;-78
2022/01/06 00:42:08;;;;;;;27.98;20.92;;;;;;;4.25;100.00;99843.88;5091529;28;20036;-78
2022/01/06 00:44:33;;;;;;;30.63;21.30;;;;;;;4.16;100.00;99830.59;5067157;28;20051;-78
2022/01/06 00:46:59;;;;;;;37.35;21.73;;;;;;;4.23;100.00;99845.47;5089012;28;20028;-77
2022/01/06 00:49:24;;;;;;;38.72;21.33;;;;;;;4.25;100.00;99861.75;5090641;28;20032;-76
2022/01/06 00:51:50;;;;;;;36.90;20.73;;;;;;;3.70;100.00;99814.63;5091237;28;20032;-76
2022/01/06 00:54:16;;;;;;;39.10;21.15;;;;;;;3.67;100.00;99870.59;5090520;28;20028;-77
2022/01/06 00:56:41;;;;;;;36.15;21.35;;;;;;;3.55;100.00;99872.47;5093371;28;20020;-77
2022/01/06 00:59:06;;;;;;;31.52;20.50;;;;;;;3.33;100.00;99829.59;5093124;28;20024;-76
2022/01/06 01:01:32;;;;;;;30.60;20.52;;;;;;;3.61;100.00;99851.53;5092755;28;20089;-75
2022/01/06 01:03:58;;;;;;;33.30;22.27;;;;;;;3.48;100.00;99827.00;5093259;28;20078;-75
2022/01/06 01:06:24;;;;;;;38.38;24.02;;;;;;;3.48;100.00;99796.41;5093263;28;20056;-76
2022/01/06 01:09:09;;;;;;;33.75;23.80;;;;;;;3.94;100.00;99841.38;5092872;28;20048;-76
2022/01/06 01:11:35;;;;;;;32.25;22.75;;;;;;;3.78;100.00;99806.50;5066649;28;20430;-75
2022/01/06 01:14:16;;;;;;;32.92;21.23;;;;;;;3.94;100.00;99824.38;5070895;28;20039;-76
2022/01/06 01:16:49;;;;;;;34.53;21.02;;;;;;;3.84;100.00;99838.34;5070363;28;20044;-74
2022/01/06 01:19:15;;;;;;;33.40;20.98;;;;;;;3.76;100.00;99825.94;5070700;28;20024;-75
2022/01/06 01:21:40;;;;;;;30.38;21.38;;;;;;;3.96;100.00;99850.00;5069941;28;20132;-75
2022/01/06 01:24:06;;;;;;;34.10;20.98;;;;;;;3.99;100.00;99852.72;5070226;28;20028;-75
2022/01/06 01:26:32;;;;;;;30.58;19.65;;;;;;;3.85;100.00;99867.28;5070316;28;20036;-72
2022/01/06 01:28:57;;;;;;;37.92;20.70;;;;;;;3.65;100.00;99867.09;5053584;28;20033;-74
2022/01/06 01:33:51;;;;;;;29.75;20.83;;;;;;;3.43;100.00;99839.50;5070388;28;20430;-73
2022/01/06 01:36:16;;;;;;;45.78;23.75;;;;;;;3.48;100.00;99875.50;5070417;28;20037;-73
2022/01/06 01:38:43;;;;;;;37.55;22.38;;;;;;;3.45;100.00;99865.09;5069796;28;20402;-73
2022/01/06 01:41:10;;;;;;;31.20;21.90;;;;;;;3.50;100.00;99858.59;5070090;28;20041;-74
2022/01/06 01:43:36;;;;;;;31.20;21.52;;;;;;;3.66;100.00;99865.41;5091059;28;20044;-73
2022/01/06 01:46:10;;;;;;;29.20;20.50;;;;;;;3.33;100.00;99825.38;5093192;28;20032;-73
2022/01/06 01:48:39;;;;;;;27.05;19.60;;;;;;;3.41;100.00;99851.28;5092779;28;20020;-72
2022/01/06 01:51:04;;;;;;;30.23;21.40;;;;;;;3.33;100.00;99819.41;5092465;28;20036;-73
2022/01/06 01:53:30;;;;;;;30.15;21.02;;;;;;;3.68;100.00;99854.50;5092602;28;20050;-73
2022/01/06 01:55:55;;;;;;;30.52;21.17;;;;;;;3.73;100.00;99842.84;5092825;28;20039;-73
2022/01/06 01:58:21;;;;;;;28.55;20.83;;;;;;;3.84;100.00;99838.34;5090392;28;20040;-80
2022/01/06 02:00:47;;;;;;;33.33;21.60;;;;;;;3.79;100.00;99837.22;5074250;28;20110;-79
2022/01/06 02:03:12;;;;;;;28.30;21.10;;;;;;;3.74;100.00;99787.59;5092529;28;20047;-76
2022/01/06 02:05:39;;;;;;;29.40;20.70;;;;;;;3.98;100.00;99833.94;5092489;28;20024;-77
2022/01/06 02:08:05;;;;;;;29.83;20.95;;;;;;;3.90;100.00;99830.13;5092995;28;20166;-75
2022/01/06 02:10:31;;;;;;;29.40;20.85;;;;;;;3.67;100.00;99788.03;5092103;28;20070;-74
2022/01/06 02:13:00;;;;;;;28.52;21.00;;;;;;;4.11;100.00;99845.72;5092234;28;20482;-77
2022/01/06 02:15:26;;;;;;;32.15;21.60;;;;;;;4.04;100.00;99833.41;5092227;28;20028;-77
2022/01/06 02:17:51;;;;;;;30.52;21.02;;;;;;;4.14;100.00;99837.34;5092340;28;20527;-78
2022/01/06 02:20:19;;;;;;;28.13;20.80;;;;;;;4.11;100.00;99821.81;5091563;28;20059;-84
2022/01/06 02:22:45;;;;;;;29.42;19.52;;;;;;;4.24;100.00;99843.78;5084097;28;20051;-83
2022/01/06 02:25:32;;;;;;;28.27;20.25;;;;;;;3.98;100.00;99840.75;5082542;28;20028;-82
2022/01/06 02:28:00;;;;;;;32.88;22.90;;;;;;;3.76;100.00;99816.59;5076364;28;20451;-76
2022/01/06 02:30:26;;;;;;;38.58;24.13;;;;;;;3.91;100.00;99831.00;5091736;28;20059;-79
2022/01/06 02:32:53;;;;;;;30.90;21.60;;;;;;;3.90;100.00;99822.47;5091692;28;20136;-78
2022/01/06 02:35:21;;;;;;;30.05;21.17;;;;;;;3.37;100.00;99822.19;5090537;28;20032;-79
2022/01/06 02:37:47;;;;;;;36.95;22.13;;;;;;;3.02;100.00;99825.31;5073683;28;20039;-78
2022/01/06 02:40:16;;;;;;;30.67;20.90;;;;;;;2.88;100.00;99857.69;5092027;28;20035;-79
2022/01/06 02:42:44;;;;;;;30.90;22.73;;;;;;;2.82;100.00;99837.81;5091822;28;20036;-79
2022/01/06 02:45:11;;;;;;;35.30;24.70;;;;;;;2.94;100.00;99832.53;5091852;28;20692;-79
2022/01/06 02:47:37;;;;;;;30.95;22.15;;;;;;;3.02;100.00;99850.81;5090698;28;20204;-78
2022/01/06 02:50:04;;;;;;;31.05;21.48;;;;;;;2.87;100.00;99820.22;5089492;28;20060;-78
2022/01/06 02:52:30;;;;;;;37.95;28.85;;;;;;;2.98;100.00;99859.06;5091279;28;20102;-75
2022/01/06 02:54:55;;;;;;;34.63;27.13;;;;;;;2.89;100.00;99854.31;5090825;28;20072;-78
2022/01/06 02:57:20;;;;;;;33.33;23.88;;;;;;;2.95;100.00;99853.81;5073273;28;20024;-76
2022/01/06 02:59:46;;;;;;;41.25;25.45;;;;;;;3.03;100.00;99850.03;5090383;28;20035;-76
2022/01/06 03:02:11;;;;;;;50.28;27.50;;;;;;;2.89;100.00;99861.97;5090576;28;20509;-77
2022/01/06 03:04:37;;;;;;;40.00;23.95;;;;;;;2.55;100.00;99848.13;5090550;28;20503;-77
2022/01/06 03:07:03;;;;;;;33.03;22.48;;;;;;;2.65;100.00;99847.00;5089324;28;20032;-79
2022/01/06 03:09:37;;;;;;;32.55;21.90;;;;;;;2.89;100.00;99861.97;5090894;28;20393;-77
2022/01/06 03:12:12;;;;;;;34.75;21.88;;;;;;;2.94;100.00;99862.25;5090779;28;20027;-78
2022/01/06 03:14:37;;;;;;;34.75;21.00;;;;;;;2.48;100.00;99827.31;5090022;28;20028;-76
2022/01/06 03:17:04;;;;;;;50.20;24.67;;;;;;;2.02;100.00;99821.25;5071879;28;20038;-76
2022/01/06 03:19:30;;;;;;;34.55;21.42;;;;;;;1.88;100.00;99814.41;5088686;28;20398;-77
2022/01/06 03:21:56;;;;;;;31.42;22.55;;;;;;;1.98;100.00;99829.50;5090403;28;20031;-77
2022/01/06 03:24:21;;;;;;;39.38;22.52;;;;;;;2.20;100.00;99856.25;5089344;28;20024;-78
2022/01/06 03:26:47;;;;;;;34.08;22.95;;;;;;;2.40;100.00;99867.63;5090302;28;20035;-77
2022/01/06 03:29:14;;;;;;;42.92;25.58;;;;;;;2.45;100.00;99870.44;5072417;28;20501;-76
2022/01/06 03:31:39;;;;;;;39.33;26.90;;;;;;;2.30;100.00;99884.03;5082696;28;20119;-77
2022/01/06 03:34:05;;;;;;;39.33;28.02;;;;;;;1.84;100.00;99820.13;5088512;28;20123;-77
2022/01/06 03:36:30;;;;;;;46.53;34.08;;;;;;;1.98;100.00;99824.41;5090448;28;20024;-79
2022/01/06 03:38:56;;;;;;;40.65;30.02;;;;;;;2.37;100.00;99857.25;5090904;28;20028;-77
2022/01/06 03:41:21;;;;;;;45.63;31.63;;;;;;;2.47;100.00;99874.84;5090098;28;20028;-75
2022/01/06 03:43:47;;;;;;;40.25;32.05;;;;;;;2.45;100.00;99847.53;5090307;28;20016;-76
2022/01/06 03:46:12;;;;;;;35.83;24.58;;;;;;;2.33;100.00;99847.66;5090076;28;20119;-74
2022/01/06 03:48:37;;;;;;;31.42;23.65;;;;;;;2.49;100.00;99865.59;5071521;28;20523;-75
2022/01/06 03:51:03;;;;;;;32.83;22.83;;;;;;;2.54;100.00;99841.31;5088767;28;20508;-75
2022/01/06 03:53:28;;;;;;;33.25;22.92;;;;;;;2.74;100.00;99875.59;5089715;28;20600;-74
2022/01/06 03:55:54;;;;;;;32.70;23.15;;;;;;;2.74;100.00;99854.31;5090311;28;20471;-73
2022/01/06 03:58:19;;;;;;;34.05;23.33;;;;;;;2.67;100.00;99867.50;5090037;28;20028;-75
2022/01/06 04:00:45;;;;;;;33.92;22.88;;;;;;;2.71;100.00;99874.53;5089530;28;20081;-73
2022/01/06 04:03:10;;;;;;;32.10;21.52;;;;;;;2.81;100.00;99873.41;5083401;28;20028;-74
2022/01/06 04:05:36;;;;;;;27.45;20.50;;;;;;;2.88;100.00;99866.19;5102421;28;20034;-74
2022/01/06 04:08:01;;;;;;;28.75;20.05;;;;;;;2.95;100.00;99859.78;5088618;28;20035;-73
2022/01/06 04:10:27;;;;;;;30.98;20.70;;;;;;;2.71;100.00;99851.59;5097326;28;20118;-73
2022/01/06 04:12:52;;;;;;;41.78;25.95;;;;;;;2.64;100.00;99855.47;5089321;28;20444;-74
2022/01/06 04:15:19;;;;;;;38.90;22.65;;;;;;;2.47;100.00;99863.75;5090004;28;20028;-75
2022/01/06 04:17:44;;;;;;;32.08;21.02;;;;;;;2.21;100.00;99847.81;5090550;28;20020;-73
2022/01/06 04:20:12;;;;;;;38.03;24.15;;;;;;;2.08;100.00;99844.53;5090230;28;20482;-73
2022/01/06 04:22:38;;;;;;;33.00;22.92;;;;;;;2.33;100.00;99856.19;5089379;28;20036;-76
2022/01/06 04:25:04;;;;;;;35.58;22.73;;;;;;;2.40;100.00;99862.53;5090242;28;20537;-76
2022/01/06 04:27:30;;;;;;;35.78;22.52;;;;;;;2.43;100.00;99868.69;5090624;28;20531;-76
2022/01/06 04:29:55;;;;;;;32.47;22.33;;;;;;;2.31;100.00;99859.44;5090360;28;20025;-75
2022/01/06 04:32:23;;;;;;;33.25;23.00;;;;;;;2.31;100.00;99888.31;5089678;28;20394;-79
2022/01/06 04:34:49;;;;;;;35.72;22.42;;;;;;;2.30;100.00;99876.38;5070544;28;20024;-81
2022/01/06 04:37:14;;;;;;;30.02;22.13;;;;;;;2.42;100.00;99886.44;5088880;28;20043;-79
2022/01/06 04:39:40;;;;;;;31.67;21.00;;;;;;;2.43;100.00;99873.78;5090356;28;20020;-82
2022/01/06 04:42:06;;;;;;;28.00;20.13;;;;;;;2.48;100.00;99896.09;5090452;28;20016;-82
2022/01/06 04:44:32;;;;;;;34.50;20.73;;;;;;;2.47;100.00;99904.53;5047165;28;20040;-79
2022/01/06 04:46:57;;;;;;;33.17;23.67;;;;;;;2.13;100.00;99902.50;5047526;28;20419;-79
2022/01/06 04:49:22;;;;;;;33.38;23.05;;;;;;;1.68;100.00;99902.25;5045964;28;20033;-81
2022/01/06 04:51:49;;;;;;;28.87;21.57;;;;;;;1.53;100.00;99910.66;5047377;28;20040;-80
2022/01/06 04:54:14;;;;;;;39.63;20.90;;;;;;;1.23;100.00;99917.22;5047238;28;20498;-80
2022/01/06 04:56:40;;;;;;;54.00;21.93;;;;;;;0.52;100.00;99854.97;5047024;28;20095;-82
2022/01/06 04:59:10;;;;;;;61.33;23.10;;;;;;;1.07;100.00;99916.22;5047268;28;20033;-80
2022/01/06 05:01:37;;;;;;;59.43;24.03;;;;;;;0.64;100.00;99844.78;5047510;28;20108;-80
2022/01/06 05:04:02;;;;;;;66.07;29.33;;;;;;;0.95;100.00;99893.41;5047348;28;20045;-82
2022/01/06 05:06:28;;;;;;;65.30;25.63;;;;;;;0.92;100.00;99877.97;5047259;28;20094;-84
2022/01/06 05:08:54;;;;;;;69.17;32.27;;;;;;;1.20;100.00;99896.69;5047141;28;20052;-84
2022/01/06 05:11:20;;;;;;;49.90;31.23;;;;;;;1.48;100.00;99893.38;5046382;28;20059;-78
2022/01/06 05:13:46;;;;;;;84.97;29.80;;;;;;;1.70;100.00;99903.25;5048243;28;20049;-80
2022/01/06 05:16:11;;;;;;;101.15;31.05;;;;;;;1.78;100.00;99895.31;5083893;28;20073;-81
2022/01/06 05:18:38;;;;;;;98.40;29.00;;;;;;;1.69;100.00;99891.31;5093432;28;20521;-80
2022/01/06 05:21:06;;;;;;;93.97;25.43;;;;;;;1.82;100.00;99914.22;5075272;28;20070;-81
2022/01/06 05:23:32;;;;;;;101.13;23.23;;;;;;;1.08;100.00;99887.44;5093311;28;20046;-78
2022/01/06 05:25:58;;;;;;;106.63;23.93;;;;;;;1.09;100.00;99919.72;5056120;28;20028;-77
2022/01/06 05:28:24;;;;;;;58.93;23.17;;;;;;;0.77;100.00;99907.44;5092335;28;20032;-75
2022/01/06 05:30:50;;;;;;;49.17;24.67;;;;;;;0.78;100.00;99916.81;5089924;28;20095;-76
2022/01/06 05:33:15;;;;;;;55.43;25.30;;;;;;;0.82;100.00;99923.00;5091205;28;20062;-76
2022/01/06 05:35:41;;;;;;;45.93;24.07;;;;;;;1.08;100.00;99925.59;5072729;28;20035;-76
2022/01/06 05:38:06;;;;;;;47.47;25.50;;;;;;;1.03;100.00;99878.66;5080353;28;20032;-76
2022/01/06 05:40:32;;;;;;;44.50;25.70;;;;;;;1.48;100.00;99932.41;5093342;28;20056;-76
2022/01/06 05:42:57;;;;;;;45.93;25.50;;;;;;;1.57;100.00;99925.38;5092859;28;20034;-76
2022/01/06 05:45:24;;;;;;;45.57;25.93;;;;;;;1.75;100.00;99940.03;5092564;28;20085;-74
2022/01/06 05:47:50;;;;;;;76.60;26.40;;;;;;;1.81;100.00;99937.00;5090625;28;20044;-75
2022/01/06 05:50:15;;;;;;;44.70;25.15;;;;;;;1.90;100.00;99940.13;5092627;28;20470;-74
2022/01/06 05:52:41;;;;;;;54.28;24.77;;;;;;;1.90;100.00;99945.22;5092557;28;20028;-74
2022/01/06 05:55:07;;;;;;;50.25;23.80;;;;;;;1.93;100.00;99953.03;5091316;28;20106;-77
2022/01/06 05:57:32;;;;;;;70.57;25.45;;;;;;;2.05;100.00;99951.25;5092439;28;20038;-77
2022/01/06 05:59:58;;;;;;;61.15;23.50;;;;;;;2.17;100.00;99946.06;5092767;28;20032;-77
2022/01/06 06:02:23;;;;;;;64.35;23.17;;;;;;;2.24;100.00;99950.75;5092710;28;20148;-77
2022/01/06 06:04:49;;;;;;;49.08;24.15;;;;;;;2.28;100.00;99959.47;5092723;28;20034;-77
2022/01/06 06:07:14;;;;;;;44.22;22.73;;;;;;;2.19;100.00;99933.41;5092577;28;20071;-77
2022/01/06 06:09:40;;;;;;;56.55;25.45;;;;;;;2.37;100.00;99946.44;5092603;28;20052;-77
2022/01/06 06:12:06;;;;;;;61.63;27.38;;;;;;;2.35;100.00;99943.75;5092334;28;20024;-77
2022/01/06 06:14:32;;;;;;;43.90;26.50;;;;;;;2.38;100.00;99932.88;5056500;28;20040;-77
2022/01/06 06:16:57;;;;;;;58.13;24.15;;;;;;;2.46;100.00;99958.84;5090149;28;20047;-78
2022/01/06 06:19:23;;;;;;;40.60;23.83;;;;;;;2.60;100.00;99970.75;5090178;28;20063;-78
2022/01/06 06:21:48;;;;;;;40.08;24.52;;;;;;;2.57;100.00;99960.38;5091580;28;20028;-79
2022/01/06 06:24:14;;;;;;;57.53;30.92;;;;;;;2.66;100.00;99976.22;5088793;28;20032;-75
2022/01/06 06:26:40;;;;;;;69.35;39.90;;;;;;;2.67;100.00;99985.63;5091879;28;20028;-74
2022/01/06 06:29:05;;;;;;;54.80;32.13;;;;;;;2.65;100.00;99966.78;5070992;28;20554;-74
2022/01/06 06:31:31;;;;;;;54.60;34.47;;;;;;;2.42;100.00;99930.63;5089378;28;20038;-76
2022/01/06 06:33:56;;;;;;;52.63;30.88;;;;;;;2.73;100.00;99980.91;5091634;28;20422;-74
2022/01/06 06:36:22;;;;;;;40.67;26.70;;;;;;;2.53;100.00;99968.59;5091630;28;20028;-74
2022/01/06 06:38:47;;;;;;;45.17;26.00;;;;;;;2.61;100.00;99982.69;5091588;28;20055;-75
2022/01/06 06:41:13;;;;;;;39.88;25.55;;;;;;;2.68;100.00;99995.03;5091317;28;20378;-74
2022/01/06 06:43:38;;;;;;;39.15;24.83;;;;;;;2.56;100.00;99996.84;5089588;28;20020;-75
2022/01/06 06:46:04;;;;;;;34.92;22.98;;;;;;;2.65;100.00;100002.47;5090226;28;20063;-74
2022/01/06 06:48:29;;;;;;;33.17;23.27;;;;;;;2.57;100.00;99999.47;5091177;28;20016;-75
2022/01/06 06:50:54;;;;;;;31.60;22.30;;;;;;;2.51;100.00;100009.28;5091031;28;20050;-75
2022/01/06 06:53:20;;;;;;;30.83;22.48;;;;;;;2.10;100.00;99915.91;5090896;28;20375;-75
2022/01/06 06:55:45;;;;;;;29.75;22.77;;;;;;;2.64;100.00;100007.47;5090484;28;20020;-75
2022/01/06 06:58:11;;;;;;;27.35;21.17;;;;;;;2.45;100.00;99969.81;5090962;28;20113;-74
2022/01/06 07:00:37;;;;;;;32.38;23.45;;;;;;;2.63;100.00;100014.25;5090861;28;20016;-75
2022/01/06 07:03:02;;;;;;;35.30;23.50;;;;;;;2.62;100.00;100015.03;5090705;28;20024;-75
2022/01/06 07:05:29;;;;;;;29.02;21.65;;;;;;;2.45;100.00;99982.56;5090939;28;20035;-76
2022/01/06 07:07:54;;;;;;;34.28;24.52;;;;;;;2.74;100.00;100013.25;5090569;28;20157;-74
2022/01/06 07:10:20;;;;;;;36.55;25.60;;;;;;;2.80;100.00;99997.44;5088930;28;20106;-73
2022/01/06 07:12:46;;;;;;;35.78;25.30;;;;;;;2.82;100.00;100016.25;5090411;28;20031;-72
2022/01/06 07:15:14;;;;;;;38.22;27.98;;;;;;;2.84;100.00;99999.41;5090338;28;20035;-73
2022/01/06 07:17:41;;;;;;;37.13;25.80;;;;;;;2.59;100.00;99967.31;5090834;28;20393;-74
2022/01/06 07:20:08;;;;;;;36.17;26.20;;;;;;;2.67;100.00;99966.91;5090810;28;20039;-72
2022/01/06 07:22:33;;;;;;;40.80;28.13;;;;;;;2.92;100.00;99982.88;5090627;28;20038;-73
2022/01/06 07:25:01;;;;;;;36.58;27.60;;;;;;;3.27;100.00;100029.13;5090221;28;20024;-73
2022/01/06 07:27:26;;;;;;;42.00;28.27;;;;;;;3.34;100.00;100033.78;5090513;28;20106;-73
2022/01/06 07:29:52;;;;;;;39.95;28.77;;;;;;;3.48;100.00;100037.16;5090357;28;20067;-75
2022/01/06 07:32:17;;;;;;;39.30;27.00;;;;;;;3.54;100.00;100039.19;5090074;28;20031;-73
2022/01/06 07:34:43;;;;;;;41.78;28.58;;;;;;;3.62;100.00;100024.31;5090201;28;20039;-73
2022/01/06 07:37:08;;;;;;;39.92;28.63;;;;;;;3.62;100.00;100014.09;5089870;28;20020;-72
2022/01/06 07:39:34;;;;;;;40.60;30.30;;;;;;;3.69;100.00;100017.09;5089706;28;20032;-73
2022/01/06 07:41:59;;;;;;;40.75;30.17;;;;;;;3.91;100.00;100022.53;5089508;28;20040;-74
2022/01/06 07:44:25;;;;;;;41.13;30.02;;;;;;;3.97;100.00;100023.75;5090955;28;20032;-74
2022/01/06 07:46:50;;;;;;;38.60;29.30;;;;;;;3.99;100.00;100013.63;5091263;28;20060;-74
2022/01/06 07:49:15;;;;;;;39.03;29.08;;;;;;;4.15;100.00;100025.56;5090600;28;20032;-74
2022/01/06 07:51:41;;;;;;;38.00;29.27;;;;;;;4.22;100.00;100020.00;5088330;28;20031;-72
2022/01/06 07:54:07;;;;;;;41.97;28.75;;;;;;;4.32;100.00;100023.94;5041906;28;20050;-74
2022/01/06 07:56:34;;;;;;;41.33;29.27;;;;;;;4.35;100.00;100012.22;5088149;28;20040;-73
2022/01/06 07:58:59;;;;;;;41.67;29.17;;;;;;;4.26;100.00;99973.41;5085614;28;20119;-74
2022/01/06 08:01:25;;;;;;;39.08;29.25;;;;;;;4.52;100.00;100012.25;5089530;28;20036;-73
2022/01/06 08:03:51;;;;;;;39.47;28.88;;;;;;;4.61;100.00;100028.09;5090004;28;20032;-72
2022/01/06 08:06:17;;;;;;;39.20;27.23;;;;;;;4.66;100.00;100021.53;5089368;28;20058;-73
2022/01/06 08:08:43;;;;;;;45.10;32.83;;;;;;;4.76;100.00;100030.59;5089280;28;20031;-73
2022/01/06 08:11:10;;;;;;;43.25;32.55;;;;;;;4.82;100.00;100024.91;5089328;28;20499;-73
2022/01/06 08:13:36;;;;;;;47.22;33.17;;;;;;;5.05;100.00;100032.88;5089531;28;20078;-73
2022/01/06 08:16:02;;;;;;;44.85;33.15;;;;;;;5.22;100.00;100032.09;5089986;28;20040;-73
2022/01/06 08:18:27;;;;;;;44.40;33.85;;;;;;;5.28;100.00;100034.97;5089595;28;20111;-73
2022/01/06 08:20:53;;;;;;;49.38;31.75;;;;;;;5.28;100.00;100017.06;5089846;28;20020;-73
2022/01/06 08:23:19;;;;;;;44.45;30.73;;;;;;;5.29;100.00;100029.03;5089314;28;20039;-73
2022/01/06 08:25:44;;;;;;;40.95;30.60;;;;;;;5.48;100.00;100036.00;5089850;28;20024;-73
2022/01/06 08:28:10;;;;;;;39.75;30.35;;;;;;;5.54;100.00;100031.97;5089775;28;20062;-73
2022/01/06 08:30:35;;;;;;;45.05;29.73;;;;;;;5.26;100.00;99969.13;5089610;28;20024;-73
2022/01/06 08:33:01;;;;;;;44.42;30.25;;;;;;;5.67;100.00;100036.91;5089631;28;20082;-73
2022/01/06 08:35:28;;;;;;;42.40;32.63;;;;;;;5.73;100.00;100033.75;5089450;28;20031;-73
2022/01/06 08:37:53;;;;;;;42.40;31.55;;;;;;;5.89;100.00;100049.06;5088954;28;20059;-74
2022/01/06 08:40:19;;;;;;;46.42;31.27;;;;;;;6.02;100.00;100044.56;5089581;28;20066;-74
2022/01/06 08:42:48;;;;;;;44.05;32.00;;;;;;;5.92;100.00;100026.19;5089914;28;20115;-73
2022/01/06 08:45:18;;;;;;;45.97;34.63;;;;;;;6.07;100.00;100043.09;5089310;28;20501;-74
2022/01/06 08:47:44;;;;;;;41.45;30.55;;;;;;;6.15;100.00;100036.69;5071400;28;20032;-74
2022/01/06 08:50:11;;;;;;;38.33;28.75;;;;;;;6.20;100.00;100027.53;5092613;28;20035;-73
2022/01/06 08:52:38;;;;;;;40.58;29.23;;;;;;;6.15;100.00;100037.53;5093109;28;20024;-73
2022/01/06 08:55:06;;;;;;;42.35;31.77;;;;;;;5.95;100.00;100002.38;5093163;28;20383;-79
2022/01/06 08:57:32;;;;;;;45.63;31.45;;;;;;;6.21;100.00;100052.34;5013317;28;20045;-70
2022/01/06 08:59:57;;;;;;;42.10;32.60;;;;;;;6.35;100.00;100055.56;5030659;28;20042;-73
2022/01/06 09:02:23;;;;;;;47.92;31.83;;;;;;;6.39;100.00;100049.78;5031082;28;20533;-73
2022/01/06 09:04:50;;;;;;;43.35;31.58;;;;;;;6.51;100.00;100062.28;5031258;28;20566;-73
2022/01/06 09:07:15;;;;;;;39.30;29.00;;;;;;;6.54;100.00;100057.31;5031019;28;20526;-75
2022/01/06 09:09:41;;;;;;;52.92;30.98;;;;;;;6.44;100.00;100042.28;5030832;28;20037;-75
2022/01/06 09:12:08;;;;;;;40.53;31.13;;;;;;;6.59;100.00;100058.41;5014114;28;20144;-75
2022/01/06 09:14:33;;;;;;;40.13;32.22;;;;;;;6.76;100.00;100048.91;5031011;28;20034;-74
2022/01/06 09:16:59;;;;;;;41.45;31.08;;;;;;;6.91;100.00;100045.28;5031039;28;20076;-74
2022/01/06 09:19:24;;;;;;;42.55;31.63;;;;;;;7.05;100.00;100045.88;5030759;28;20041;-74
2022/01/06 09:21:50;;;;;;;43.05;29.35;;;;;;;7.01;100.00;100028.63;5048402;28;20048;-73
2022/01/06 09:24:18;;;;;;;43.50;30.88;;;;;;;7.09;100.00;100035.84;5050758;28;20437;-74
2022/01/06 09:26:44;;;;;;;40.63;31.65;;;;;;;7.31;100.00;100035.88;5033849;28;20043;-75
2022/01/06 09:29:13;;;;;;;41.65;29.75;;;;;;;7.44;100.00;100017.63;5083449;28;20437;-74
2022/01/06 09:31:40;;;;;;;41.85;30.63;;;;;;;7.69;100.00;100037.50;5092423;28;20032;-74
2022/01/06 09:34:07;;;;;;;42.08;31.98;;;;;;;7.83;100.00;100043.22;5093128;28;20063;-74
2022/01/06 09:36:34;;;;;;;39.95;30.67;;;;;;;7.88;100.00;100038.28;5092529;28;20052;-74
2022/01/06 09:39:01;;;;;;;38.42;29.33;;;;;;;7.69;100.00;99980.09;5093229;28;20028;-74
2022/01/06 09:41:27;;;;;;;45.00;30.58;;;;;;;8.06;100.00;100023.59;5092833;28;20036;-74
2022/01/06 09:43:53;;;;;;;38.40;29.58;;;;;;;8.08;100.00;100027.06;5092821;28;20028;-75
2022/01/06 09:46:20;;;;;;;45.42;32.05;;;;;;;8.01;100.00;100006.22;5092855;28;20028;-76
2022/01/06 09:48:47;;;;;;;44.15;31.40;;;;;;;8.31;100.00;100028.81;5092356;28;20032;-75
2022/01/06 09:51:12;;;;;;;36.42;27.40;;;;;;;8.37;100.00;100027.38;5092783;28;20115;-73
2022/01/06 09:53:38;;;;;;;35.92;28.10;;;;;;;8.47;100.00;100015.75;5092883;28;20537;-74
2022/01/06 09:56:04;;;;;;;36.00;28.95;;;;;;;8.66;100.00;100017.34;5090907;28;20024;-74
2022/01/06 09:58:30;;;;;;;36.58;27.63;;;;;;;8.73;100.00;100013.28;5081668;28;20043;-73
2022/01/06 10:00:56;;;;;;;33.08;25.23;;;;;;;8.75;100.00;100009.06;5091465;28;20469;-73
2022/01/06 10:03:39;;;;;;;34.33;25.83;;;;;;;8.87;100.00;100004.38;5107183;28;20032;-74
2022/01/06 10:06:24;;;;;;;32.95;26.08;;;;;;;9.08;100.00;100021.41;5089407;28;20028;-73
2022/01/06 10:09:02;;;;;;;36.10;25.13;;;;;;;8.97;100.00;99985.00;5087608;28;20052;-73
2022/01/06 10:11:31;;;;;;;35.67;26.13;;;;;;;9.32;100.00;100023.97;5091920;28;20405;-74
2022/01/06 10:14:07;;;;;;;34.33;22.83;;;;;;;9.43;100.00;100014.03;5091876;28;20508;-74
2022/01/06 10:16:34;;;;;;;30.90;23.02;;;;;;;9.54;100.00;100006.66;5092186;28;20045;-73
2022/01/06 10:19:02;;;;;;;31.17;24.05;;;;;;;9.64;100.00;100011.28;5056007;28;20405;-74
2022/01/06 10:21:38;;;;;;;38.53;25.42;;;;;;;9.69;100.00;100007.19;5091721;28;20486;-74
2022/01/06 10:24:15;;;;;;;29.52;23.60;;;;;;;9.84;100.00;100006.81;5091442;28;20118;-73
2022/01/06 10:27:06;;;;;;;30.60;23.50;;;;;;;9.76;100.00;100016.00;5091776;28;20367;-74
2022/01/06 10:29:38;;;;;;;29.50;22.92;;;;;;;9.69;100.00;100011.44;5091175;28;20510;-75
2022/01/06 10:32:17;;;;;;;37.60;24.95;;;;;;;9.74;100.00;99998.72;5091378;28;20099;-74
2022/01/06 10:34:44;;;;;;;;;;;;;;;9.51;100.00;99999.72;5091879;28;20031;-74
2022/01/06 10:37:40;;;;;;;32.00;24.02;;;;;;;9.43;100.00;99992.56;5091324;28;20366;-73
2022/01/06 10:40:06;;;;;;;36.67;27.05;;;;;;;9.32;100.00;99961.25;5090168;28;20069;-73
2022/01/06 10:42:33;;;;;;;34.97;26.25;;;;;;;9.63;100.00;99996.69;5091202;28;20476;-74
2022/01/06 10:45:14;;;;;;;39.55;26.48;;;;;;;9.69;100.00;99981.41;5090712;28;20103;-74
2022/01/06 10:47:42;;;;;;;36.13;25.67;;;;;;;9.89;100.00;99978.56;5091296;28;20024;-74
2022/01/06 10:50:18;;;;;;;38.35;25.27;;;;;;;9.76;100.00;99940.34;5091223;28;20024;-74
2022/01/06 10:53:06;;;;;;;34.70;25.08;;;;;;;10.12;100.00;99974.16;5091173;28;20020;-75
2022/01/06 10:55:36;;;;;;;33.70;23.38;;;;;;;10.19;100.00;99962.31;5089966;28;20044;-75
2022/01/06 10:58:02;;;;;;;35.47;21.10;;;;;;;10.26;100.00;99958.22;5089718;28;20114;-75
2022/01/06 11:00:42;;;;;;;30.92;19.88;;;;;;;10.30;100.00;99960.06;5091146;28;20457;-76
2022/01/06 11:03:29;;;;;;;38.80;24.40;;;;;;;10.52;100.00;99957.31;5066308;28;20474;-76
2022/01/06 11:05:58;;;;;;;44.17;22.58;;;;;;;10.61;100.00;99955.81;5055704;28;20415;-76
2022/01/06 11:08:27;;;;;;;37.25;21.45;;;;;;;10.77;100.00;99960.59;5091097;28;20145;-76
2022/01/06 11:13:33;;;;;;;30.17;18.08;;;;;;;10.98;100.00;99933.59;5091112;28;20478;-77
2022/01/06 11:15:59;;;;;;;26.15;17.77;;;;;;;11.03;100.00;99937.19;5090809;28;20032;-77
2022/01/06 11:18:25;;;;;;;27.35;18.17;;;;;;;10.94;100.00;99913.69;5090744;28;20026;-77
2022/01/06 11:21:00;;;;;;;29.40;18.35;;;;;;;11.09;100.00;99918.38;5091267;28;20032;-77
2022/01/06 11:23:26;;;;;;;27.50;18.92;;;;;;;11.07;100.00;99895.09;5091271;28;20024;-77
2022/01/06 11:26:11;;;;;;;26.75;18.90;;;;;;;11.12;100.00;99887.47;5073003;28;20024;-77
2022/01/06 11:28:37;;;;;;;27.23;18.95;;;;;;;11.27;100.00;99898.16;5090711;28;20039;-77